createdAt,value
2019-04-07T00:01:48.886Z,4.90
2019-04-07T00:04:17.453Z,4.90
2019-04-07T00:06:46.353Z,4.80
2019-04-07T00:09:15.379Z,4.70
2019-04-07T00:11:44.135Z,4.80
2019-04-07T00:14:12.668Z,4.60
2019-04-07T00:16:41.151Z,4.60
2019-04-07T00:19:09.854Z,4.50
2019-04-07T00:21:38.377Z,4.40
2019-04-07T00:24:06.855Z,4.30
2019-04-07T00:26:35.823Z,4.20
2019-04-07T00:29:04.771Z,4.30
2019-04-07T00:31:33.380Z,4.30
2019-04-07T00:34:05.573Z,4.30
2019-04-07T00:36:34.178Z,4.30
2019-04-07T00:39:02.745Z,4.30
2019-04-07T00:41:31.162Z,4.10
2019-04-07T00:44:00.004Z,4.00
2019-04-07T00:46:28.885Z,3.90
2019-04-07T00:48:57.825Z,3.90
2019-04-07T00:51:26.751Z,3.80
2019-04-07T00:53:55.284Z,3.70
2019-04-07T00:56:23.758Z,3.60
2019-04-07T00:58:52.420Z,3.50
2019-04-07T01:01:20.870Z,3.50
2019-04-07T01:03:49.280Z,3.50
2019-04-07T01:06:17.729Z,3.40
2019-04-07T01:08:46.372Z,3.40
2019-04-07T01:11:14.891Z,3.30
2019-04-07T01:13:43.317Z,3.30
2019-04-07T01:16:11.951Z,3.40
2019-04-07T01:18:40.618Z,3.20
2019-04-07T01:21:09.467Z,3.30
2019-04-07T01:23:38.045Z,3.10
2019-04-07T01:26:06.571Z,3.10
2019-04-07T01:28:35.356Z,3.00
2019-04-07T01:31:04.367Z,3.00
2019-04-07T01:33:33.521Z,3.00
2019-04-07T01:36:02.135Z,3.00
2019-04-07T01:38:30.695Z,2.90
2019-04-07T01:41:07.390Z,2.90
2019-04-07T01:43:38.196Z,2.90
2019-04-07T01:46:20.637Z,2.80
2019-04-07T01:48:51.072Z,2.80
2019-04-07T01:51:24.579Z,2.70
2019-04-07T01:54:03.233Z,2.80
2019-04-07T01:56:33.758Z,2.70
2019-04-07T01:59:03.960Z,2.60
2019-04-07T02:01:46.653Z,2.60
2019-04-07T02:04:20.395Z,2.60
2019-04-07T02:06:56.423Z,2.60
2019-04-07T02:09:29.318Z,2.60
2019-04-07T02:12:05.618Z,2.80
2019-04-07T02:14:52.179Z,2.80
2019-04-07T02:17:28.524Z,2.50
2019-04-07T02:20:05.249Z,2.30
2019-04-07T02:22:38.594Z,2.40
2019-04-07T02:25:09.762Z,2.60
2019-04-07T02:27:42.948Z,2.70
2019-04-07T02:30:19.775Z,2.70
2019-04-07T02:32:55.765Z,2.50
2019-04-07T02:35:38.128Z,2.30
2019-04-07T02:38:17.670Z,2.10
2019-04-07T02:40:54.117Z,2.10
2019-04-07T02:43:24.298Z,2.00
2019-04-07T02:46:02.571Z,1.90
2019-04-07T02:48:48.609Z,1.80
2019-04-07T02:51:24.847Z,1.70
2019-04-07T02:53:55.248Z,1.70
2019-04-07T02:56:42.373Z,1.80
2019-04-07T02:59:29.390Z,1.80
2019-04-07T03:01:59.691Z,1.80
2019-04-07T03:04:30.943Z,1.80
2019-04-07T03:07:02.733Z,1.80
2019-04-07T03:09:49.167Z,1.90
2019-04-07T03:12:19.351Z,1.80
2019-04-07T03:14:49.514Z,1.90
2019-04-07T03:17:28.295Z,1.90
2019-04-07T03:20:14.349Z,1.90
2019-04-07T03:22:44.452Z,1.90
2019-04-07T03:25:15.606Z,1.80
2019-04-07T03:27:46.416Z,1.60
2019-04-07T03:30:20.853Z,1.50
2019-04-07T03:33:06.043Z,1.50
2019-04-07T03:35:35.557Z,1.60
2019-04-07T03:38:22.418Z,1.80
2019-04-07T03:40:52.526Z,2.00
2019-04-07T03:43:40.683Z,2.10
2019-04-07T03:46:17.195Z,2.20
2019-04-07T03:48:53.633Z,2.00
2019-04-07T03:51:41.997Z,1.90
2019-04-07T03:54:28.531Z,1.80
2019-04-07T03:57:02.515Z,1.80
2019-04-07T03:59:48.995Z,1.70
2019-04-07T04:02:34.503Z,1.70
2019-04-07T04:05:22.166Z,1.80
2019-04-07T04:07:52.653Z,1.80
2019-04-07T04:10:23.733Z,1.80
2019-04-07T04:13:05.880Z,1.70
2019-04-07T04:15:44.940Z,1.80
2019-04-07T04:18:13.844Z,1.70
2019-04-07T04:20:42.426Z,1.60
2019-04-07T04:23:11.618Z,1.60
2019-04-07T04:25:41.101Z,1.60
2019-04-07T04:28:09.568Z,1.60
2019-04-07T04:30:38.053Z,1.60
2019-04-07T04:33:06.575Z,1.70
2019-04-07T04:35:35.062Z,1.70
2019-04-07T04:38:03.919Z,1.60
2019-04-07T04:40:32.514Z,1.60
2019-04-07T04:43:02.797Z,1.70
2019-04-07T04:45:31.718Z,1.70
2019-04-07T04:48:00.354Z,1.60
2019-04-07T04:50:29.868Z,1.70
2019-04-07T04:52:58.506Z,1.70
2019-04-07T04:55:26.983Z,1.60
2019-04-07T04:57:55.429Z,1.70
2019-04-07T05:00:24.475Z,1.80
2019-04-07T05:02:53.154Z,1.90
2019-04-07T05:05:22.307Z,1.90
2019-04-07T05:07:59.001Z,2.00
2019-04-07T05:10:21.955Z,2.20
2019-04-07T05:12:50.487Z,2.10
2019-04-07T05:15:18.957Z,2.10
2019-04-07T05:17:47.547Z,2.20
2019-04-07T05:20:16.231Z,2.40
2019-04-07T05:22:45.322Z,2.60
2019-04-07T05:25:14.570Z,2.60
2019-04-07T05:27:43.236Z,2.60
2019-04-07T05:30:12.354Z,2.60
2019-04-07T05:35:09.939Z,2.50
2019-04-07T05:37:38.498Z,2.50
2019-04-07T05:40:07.431Z,2.60
2019-04-07T05:42:35.930Z,3.30
2019-04-07T05:45:07.384Z,4.80
2019-04-07T05:47:36.497Z,6.70
2019-04-07T05:50:06.310Z,8.10
2019-04-07T05:52:39.059Z,9.20
2019-04-07T05:55:06.189Z,9.90
2019-04-07T05:57:35.882Z,10.60
2019-04-07T06:00:07.276Z,11.10
2019-04-07T06:02:36.325Z,11.80
2019-04-07T06:05:06.605Z,12.30
2019-04-07T06:07:36.774Z,12.90
2019-04-07T06:10:08.075Z,13.30
2019-04-07T06:12:39.324Z,13.30
2019-04-07T06:15:07.142Z,13.50
2019-04-07T06:17:35.813Z,14.20
2019-04-07T06:20:06.841Z,14.90
2019-04-07T06:22:35.894Z,15.90
2019-04-07T06:25:07.012Z,17.20
2019-04-07T06:27:35.817Z,18.50
2019-04-07T06:30:07.494Z,19.60
2019-04-07T06:32:37.537Z,20.00
2019-04-07T06:35:08.456Z,20.60
2019-04-07T06:37:37.385Z,20.70
2019-04-07T06:40:07.048Z,21.10
2019-04-07T06:42:36.467Z,21.40
2019-04-07T06:45:08.311Z,22.00
2019-04-07T06:47:38.763Z,22.10
2019-04-07T06:50:27.941Z,22.10
2019-04-07T06:53:00.899Z,22.20
2019-04-07T06:55:33.021Z,22.60
2019-04-07T06:58:19.676Z,23.00
2019-04-07T07:01:06.800Z,23.20
2019-04-07T07:03:53.066Z,22.50
2019-04-07T07:06:26.754Z,22.00
2019-04-07T07:09:14.772Z,21.20
2019-04-07T07:11:45.306Z,20.90
2019-04-07T07:14:30.006Z,21.50
2019-04-07T07:17:02.994Z,21.50
2019-04-07T07:19:36.179Z,20.90
2019-04-07T07:22:24.625Z,20.60
2019-04-07T07:24:56.451Z,20.80
2019-04-07T07:27:23.877Z,21.50
2019-04-07T07:29:53.733Z,21.70
2019-04-07T07:32:22.711Z,21.30
2019-04-07T07:34:51.983Z,20.90
2019-04-07T07:37:22.971Z,21.10
2019-04-07T07:39:51.944Z,21.30
2019-04-07T07:42:23.142Z,22.00
2019-04-07T07:44:51.371Z,21.20
2019-04-07T07:47:21.609Z,21.50
2019-04-07T07:49:50.893Z,21.30
2019-04-07T07:52:21.030Z,21.70
2019-04-07T07:54:50.734Z,21.20
2019-04-07T07:57:23.520Z,21.30
2019-04-07T07:59:49.848Z,21.50
2019-04-07T08:02:19.983Z,22.00
2019-04-07T08:04:48.804Z,22.50
2019-04-07T08:07:17.327Z,23.40
2019-04-07T08:09:45.761Z,23.40
2019-04-07T08:12:14.213Z,21.70
2019-04-07T08:14:42.707Z,20.60
2019-04-07T08:17:12.167Z,19.60
2019-04-07T08:19:42.645Z,19.20
2019-04-07T08:22:11.659Z,19.80
2019-04-07T08:24:40.542Z,20.70
2019-04-07T08:27:09.162Z,21.30
2019-04-07T08:29:39.566Z,20.90
2019-04-07T08:32:08.580Z,20.30
2019-04-07T08:34:37.272Z,20.80
2019-04-07T08:37:05.996Z,21.20
2019-04-07T08:39:35.421Z,19.60
2019-04-07T08:42:09.720Z,18.50
2019-04-07T08:44:35.408Z,17.90
2019-04-07T08:47:03.964Z,16.80
2019-04-07T08:49:33.559Z,15.40
2019-04-07T08:52:07.975Z,14.60
2019-04-07T08:54:32.967Z,14.10
2019-04-07T08:57:01.499Z,14.20
2019-04-07T08:59:30.303Z,14.10
2019-04-07T09:01:58.881Z,13.90
2019-04-07T09:04:27.382Z,14.00
2019-04-07T09:06:59.424Z,13.90
2019-04-07T09:09:34.068Z,14.00
2019-04-07T09:11:57.497Z,13.90
2019-04-07T09:14:26.107Z,14.00
2019-04-07T09:17:02.314Z,14.40
2019-04-07T09:19:38.560Z,14.90
2019-04-07T09:22:11.807Z,15.40
2019-04-07T09:24:48.309Z,15.80
2019-04-07T09:27:23.136Z,15.90
2019-04-07T09:30:09.028Z,15.70
2019-04-07T09:32:44.901Z,15.40
2019-04-07T09:35:30.913Z,15.20
2019-04-07T09:38:02.039Z,15.20
2019-04-07T09:40:42.202Z,15.00
2019-04-07T09:43:12.663Z,14.80
2019-04-07T09:45:43.642Z,14.80
2019-04-07T09:48:28.881Z,14.80
2019-04-07T09:51:04.117Z,14.70
2019-04-07T09:53:33.918Z,14.70
2019-04-07T09:56:20.335Z,14.70
2019-04-07T09:58:56.805Z,14.60
2019-04-07T10:01:28.616Z,14.50
2019-04-07T10:04:14.803Z,14.40
2019-04-07T10:07:02.611Z,14.40
2019-04-07T10:09:33.526Z,14.30
2019-04-07T10:12:06.752Z,14.30
2019-04-07T10:14:37.517Z,14.30
2019-04-07T10:17:10.804Z,14.30
2019-04-07T10:19:41.292Z,14.30
2019-04-07T10:22:28.794Z,14.20
2019-04-07T10:25:15.655Z,14.30
2019-04-07T10:28:07.339Z,14.10
2019-04-07T10:30:36.013Z,14.10
2019-04-07T10:33:19.004Z,14.00
2019-04-07T10:36:05.952Z,14.00
2019-04-07T10:38:39.165Z,14.20
2019-04-07T10:41:15.922Z,14.30
2019-04-07T10:43:46.750Z,14.30
2019-04-07T10:46:33.670Z,14.30
2019-04-07T10:49:19.220Z,14.40
2019-04-07T10:51:52.366Z,14.10
2019-04-07T10:54:39.178Z,14.00
2019-04-07T10:57:10.021Z,14.10
2019-04-07T10:59:40.310Z,14.20
2019-04-07T11:02:27.554Z,14.20
2019-04-07T11:05:07.031Z,14.10
2019-04-07T11:07:40.426Z,14.20
2019-04-07T11:10:11.506Z,14.40
2019-04-07T11:12:42.384Z,14.40
2019-04-07T11:15:13.714Z,14.20
2019-04-07T11:17:44.016Z,14.20
2019-04-07T11:20:17.031Z,14.30
2019-04-07T11:22:53.131Z,14.40
2019-04-07T11:25:26.212Z,14.40
2019-04-07T11:27:59.480Z,14.50
2019-04-07T11:30:35.568Z,14.50
2019-04-07T11:33:05.796Z,14.60
2019-04-07T11:35:45.539Z,14.60
2019-04-07T11:38:34.229Z,14.70
2019-04-07T11:41:23.553Z,14.70
2019-04-07T11:43:57.529Z,14.90
2019-04-07T11:46:27.906Z,14.80
2019-04-07T11:49:12.819Z,14.80
2019-04-07T11:51:42.446Z,14.80
2019-04-07T11:54:13.021Z,14.80
2019-04-07T11:56:59.869Z,14.80
2019-04-07T11:59:36.002Z,14.90
2019-04-07T12:02:24.377Z,15.00
2019-04-07T12:05:06.585Z,15.00
2019-04-07T12:07:53.952Z,15.10
2019-04-07T12:10:21.364Z,15.20
2019-04-07T12:12:51.673Z,15.20
2019-04-07T12:15:24.658Z,15.20
2019-04-07T12:17:53.606Z,15.10
2019-04-07T12:20:27.025Z,15.20
2019-04-07T12:22:55.746Z,15.20
2019-04-07T12:25:43.918Z,15.20
2019-04-07T12:28:17.584Z,15.40
2019-04-07T12:30:57.680Z,15.50
2019-04-07T12:33:28.579Z,15.60
2019-04-07T12:36:14.055Z,15.60
2019-04-07T12:38:49.874Z,15.70
2019-04-07T12:41:22.236Z,15.60
2019-04-07T12:43:55.161Z,15.60
2019-04-07T12:46:34.584Z,15.70
2019-04-07T12:49:07.719Z,15.70
2019-04-07T12:51:43.015Z,15.80
2019-04-07T12:54:23.400Z,15.80
2019-04-07T12:56:54.455Z,15.90
2019-04-07T12:59:37.632Z,16.00
2019-04-07T13:02:08.413Z,16.10
2019-04-07T13:04:39.698Z,16.30
2019-04-07T13:07:19.420Z,16.50
2019-04-07T13:09:48.084Z,16.60
2019-04-07T13:12:27.293Z,16.60
2019-04-07T13:15:08.531Z,16.70
2019-04-07T13:17:40.999Z,16.70
2019-04-07T13:20:19.694Z,16.70
2019-04-07T13:22:49.194Z,16.60
2019-04-07T13:25:29.269Z,16.50
2019-04-07T13:28:08.441Z,16.60
2019-04-07T13:30:47.305Z,16.60
2019-04-07T13:33:20.046Z,16.50
2019-04-07T13:36:01.774Z,16.50
2019-04-07T13:38:32.868Z,16.50
2019-04-07T13:41:04.071Z,16.40
2019-04-07T13:43:40.957Z,16.40
2019-04-07T13:46:31.834Z,16.30
2019-04-07T13:49:07.936Z,16.20
2019-04-07T13:51:45.779Z,16.20
2019-04-07T13:54:18.911Z,15.90
2019-04-07T13:57:05.537Z,15.70
2019-04-07T13:59:50.977Z,15.80
2019-04-07T14:02:30.216Z,15.70
2019-04-07T14:04:58.780Z,15.90
2019-04-07T14:07:35.336Z,16.20
2019-04-07T14:10:16.590Z,16.40
2019-04-07T14:12:55.698Z,16.50
2019-04-07T14:15:37.608Z,16.20
2019-04-07T14:18:20.154Z,15.90
2019-04-07T14:20:56.220Z,15.50
2019-04-07T14:23:26.440Z,15.30
2019-04-07T14:26:13.117Z,15.30
2019-04-07T14:28:44.000Z,15.20
2019-04-07T14:31:20.718Z,15.30
2019-04-07T14:34:00.027Z,15.40
2019-04-07T14:36:32.981Z,15.40
2019-04-07T14:39:09.611Z,15.50
2019-04-07T14:41:49.800Z,15.50
2019-04-07T14:47:24.057Z,15.70
2019-04-07T14:50:12.995Z,15.80
2019-04-07T14:52:43.239Z,15.80
2019-04-07T14:55:14.007Z,15.60
2019-04-07T14:57:44.792Z,15.70
2019-04-07T15:00:15.397Z,15.60
2019-04-07T15:02:44.457Z,15.50
2019-04-07T15:05:24.666Z,15.30
2019-04-07T15:08:09.495Z,15.10
2019-04-07T15:10:39.802Z,15.00
2019-04-07T15:13:10.712Z,15.00
2019-04-07T15:15:39.987Z,15.00
2019-04-07T15:18:08.558Z,14.90
2019-04-07T15:20:37.826Z,15.00
2019-04-07T15:23:06.638Z,15.10
2019-04-07T15:25:35.483Z,15.20
2019-04-07T15:28:04.395Z,15.20
2019-04-07T15:30:33.060Z,15.10
2019-04-07T15:33:02.807Z,14.90
2019-04-07T15:35:31.743Z,14.80
2019-04-07T15:38:01.277Z,14.60
2019-04-07T15:40:30.838Z,14.60
2019-04-07T15:43:04.743Z,14.60
2019-04-07T15:45:31.994Z,14.70
2019-04-07T15:48:01.602Z,14.80
2019-04-07T15:50:30.405Z,14.90
2019-04-07T15:53:01.618Z,14.80
2019-04-07T15:55:43.969Z,14.80
2019-04-07T15:58:00.782Z,14.70
2019-04-07T16:00:32.336Z,14.70
2019-04-07T16:03:05.504Z,14.50
2019-04-07T16:05:41.040Z,14.50
2019-04-07T16:08:04.371Z,14.60
2019-04-07T16:10:33.678Z,14.70
2019-04-07T16:13:02.641Z,14.80
2019-04-07T16:15:31.874Z,14.90
2019-04-07T16:18:03.460Z,14.90
2019-04-07T16:20:35.656Z,14.90
2019-04-07T16:23:00.935Z,14.80
2019-04-07T16:25:30.232Z,14.70
2019-04-07T16:27:59.062Z,14.60
2019-04-07T16:30:27.603Z,14.50
2019-04-07T16:32:59.803Z,14.40
2019-04-07T16:35:26.348Z,14.30
2019-04-07T16:37:55.368Z,14.10
2019-04-07T16:40:24.880Z,13.90
2019-04-07T16:43:04.414Z,13.80
2019-04-07T16:45:23.603Z,13.70
2019-04-07T16:47:52.034Z,13.60
2019-04-07T16:50:21.441Z,13.50
2019-04-07T16:52:49.999Z,13.50
2019-04-07T16:55:37.100Z,13.50
2019-04-07T16:58:06.577Z,13.40
2019-04-07T17:00:35.599Z,13.40
2019-04-07T17:03:06.210Z,13.40
2019-04-07T17:05:35.487Z,13.30
2019-04-07T17:08:05.482Z,13.30
2019-04-07T17:10:35.372Z,13.20
2019-04-07T17:13:15.293Z,13.10
2019-04-07T17:15:38.580Z,13.10
2019-04-07T17:18:08.913Z,13.00
2019-04-07T17:20:38.332Z,13.00
2019-04-07T17:23:07.158Z,12.90
2019-04-07T17:25:36.087Z,12.90
2019-04-07T17:28:06.402Z,12.70
2019-04-07T17:30:37.938Z,12.70
2019-04-07T17:33:06.446Z,12.60
2019-04-07T17:35:35.771Z,12.50
2019-04-07T17:38:06.897Z,12.50
2019-04-07T17:40:37.672Z,12.30
2019-04-07T17:43:10.762Z,12.20
2019-04-07T17:45:47.903Z,12.00
2019-04-07T17:48:19.061Z,11.70
2019-04-07T17:51:07.340Z,11.50
2019-04-07T17:53:45.337Z,11.50
2019-04-07T17:56:19.805Z,11.40
2019-04-07T17:58:53.383Z,11.40
2019-04-07T18:01:30.387Z,11.30
2019-04-07T18:04:01.223Z,11.20
2019-04-07T18:06:37.317Z,11.10
2019-04-07T18:09:24.790Z,11.00
2019-04-07T18:12:13.887Z,10.90
2019-04-07T18:15:00.697Z,10.70
2019-04-07T18:17:48.577Z,10.60
2019-04-07T18:20:23.966Z,10.40
2019-04-07T18:22:57.014Z,10.30
2019-04-07T18:25:34.085Z,10.10
2019-04-07T18:28:04.499Z,9.90
2019-04-07T18:30:35.804Z,9.80
2019-04-07T18:33:06.662Z,9.60
2019-04-07T18:35:43.240Z,9.50
2019-04-07T18:38:22.896Z,9.40
2019-04-07T18:40:55.787Z,9.30
2019-04-07T18:43:27.814Z,9.20
2019-04-07T18:46:01.136Z,9.10
2019-04-07T18:48:40.268Z,9.00
2019-04-07T18:51:27.301Z,8.90
2019-04-07T18:54:13.789Z,8.70
2019-04-07T18:56:57.054Z,8.60
2019-04-07T18:59:39.316Z,8.50
2019-04-07T19:02:25.435Z,8.50
2019-04-07T19:05:01.342Z,8.60
2019-04-07T19:07:45.885Z,8.60
2019-04-07T19:10:24.125Z,8.60
2019-04-07T19:13:04.978Z,8.60
2019-04-07T19:15:36.522Z,8.50
2019-04-07T19:18:04.628Z,8.50
2019-04-07T19:20:44.723Z,8.50
2019-04-07T19:23:32.692Z,8.20
2019-04-07T19:26:03.137Z,8.10
2019-04-07T19:28:35.720Z,8.10
2019-04-07T19:31:10.949Z,8.10
2019-04-07T19:34:00.963Z,8.20
2019-04-07T19:36:49.973Z,8.00
2019-04-07T19:39:36.505Z,7.70
2019-04-07T19:42:12.838Z,7.30
2019-04-07T19:44:55.402Z,7.00
2019-04-07T19:47:34.373Z,6.80
2019-04-07T19:50:15.402Z,6.60
2019-04-07T19:52:46.394Z,6.60
2019-04-07T19:55:16.585Z,6.80
2019-04-07T19:58:03.971Z,6.70
2019-04-07T20:00:34.255Z,6.80
2019-04-07T20:03:13.653Z,6.70
2019-04-07T20:05:56.209Z,6.60
2019-04-07T20:08:41.729Z,6.50
2019-04-07T20:11:31.648Z,6.50
2019-04-07T20:14:02.962Z,6.30
2019-04-07T20:16:33.066Z,6.10
2019-04-07T20:19:19.318Z,6.00
2019-04-07T20:22:06.848Z,5.80
2019-04-07T20:24:48.736Z,5.70
2019-04-07T20:27:24.816Z,5.60
2019-04-07T20:29:55.992Z,5.50
2019-04-07T20:32:39.089Z,5.40
2019-04-07T20:35:27.045Z,5.30
2019-04-07T20:38:00.697Z,5.20
2019-04-07T20:40:45.146Z,5.10
2019-04-07T20:43:12.967Z,5.10
2019-04-07T20:45:55.850Z,5.20
2019-04-07T20:48:33.371Z,5.30
2019-04-07T20:51:17.655Z,5.40
2019-04-07T20:53:51.500Z,5.40
2019-04-07T20:56:31.944Z,5.50
2019-04-07T20:59:08.463Z,5.50
2019-04-07T21:01:44.568Z,5.60
2019-04-07T21:04:29.227Z,5.60
2019-04-07T21:07:15.400Z,5.50
2019-04-07T21:10:05.237Z,5.30
2019-04-07T21:12:40.069Z,5.20
2019-04-07T21:15:30.485Z,5.10
2019-04-07T21:18:08.319Z,5.10
2019-04-07T21:20:48.334Z,4.90
2019-04-07T21:23:21.450Z,4.70
2019-04-07T21:26:10.014Z,4.40
2019-04-07T21:28:40.662Z,4.30
2019-04-07T21:31:18.634Z,4.30
2019-04-07T21:34:05.259Z,4.50
2019-04-07T21:36:41.147Z,4.60
2019-04-07T21:39:13.025Z,4.60
2019-04-07T21:42:00.244Z,4.70
2019-04-07T21:44:40.008Z,4.70
2019-04-07T21:47:23.603Z,4.50
2019-04-07T21:49:53.699Z,4.30
2019-04-07T21:52:26.742Z,4.10
2019-04-07T21:54:57.730Z,4.00
2019-04-07T21:57:50.129Z,4.00
2019-04-07T22:00:24.353Z,4.10
2019-04-07T22:03:03.777Z,4.20
2019-04-07T22:05:41.209Z,4.30
2019-04-07T22:08:18.827Z,4.20
2019-04-07T22:10:50.198Z,4.00
2019-04-07T22:13:18.006Z,3.80
2019-04-07T22:15:54.260Z,3.80
2019-04-07T22:18:17.363Z,3.60
2019-04-07T22:20:49.953Z,3.50
2019-04-07T22:23:16.684Z,3.40
2019-04-07T22:25:54.036Z,3.30
2019-04-07T22:28:27.664Z,3.30
2019-04-07T22:30:55.219Z,3.30
2019-04-07T22:33:25.565Z,3.30
2019-04-07T22:35:53.899Z,3.40
2019-04-07T22:38:23.731Z,3.60
2019-04-07T22:40:52.378Z,3.60
2019-04-07T22:43:21.271Z,3.70
2019-04-07T22:45:58.836Z,3.70
2019-04-07T22:48:22.820Z,3.80
2019-04-07T22:50:50.214Z,3.80
2019-04-07T22:53:23.975Z,3.70
2019-04-07T22:55:48.955Z,3.70
2019-04-07T22:58:18.106Z,3.60
2019-04-07T23:00:46.969Z,3.50
2019-04-07T23:03:15.689Z,3.30
2019-04-07T23:05:44.215Z,3.20
2019-04-07T23:08:12.663Z,3.20
2019-04-07T23:10:42.131Z,3.30
2019-04-07T23:13:11.230Z,3.20
2019-04-07T23:15:44.195Z,3.20
2019-04-07T23:18:10.050Z,3.30
2019-04-07T23:20:38.494Z,3.30
2019-04-07T23:23:06.989Z,3.30
2019-04-07T23:25:36.432Z,3.30
2019-04-07T23:28:06.177Z,3.30
2019-04-07T23:30:35.469Z,3.30
2019-04-07T23:33:04.229Z,3.30
2019-04-07T23:35:32.995Z,3.20
2019-04-07T23:38:01.649Z,3.20
2019-04-07T23:40:30.238Z,3.10
2019-04-07T23:42:58.723Z,2.90
2019-04-07T23:45:27.435Z,2.90
2019-04-07T23:47:56.050Z,2.90
2019-04-07T23:50:25.228Z,3.00
2019-04-07T23:52:53.973Z,3.00
2019-04-07T23:55:23.963Z,2.80
2019-04-07T23:57:52.515Z,2.60
